Time;durP1;ratioP1;P1;durP2;ratioP2;P2;SDS_P1;SDS_P2;PMS_P1;PMS_P2;Temp;Humidity;BMP_temperature;BMP_pressure;BME280_temperature;BME280_humidity;BME280_pressure;Samples;Min_cycle;Max_cycle;Signal;HPM_P1;HPM_P2
2023/09/17 00:00:38;;;;;;;;;2.00;2.00;;;;;24.35;43.70;101136.57;110204;1247;22072;-37
2023/09/17 00:03:23;;;;;;;;;4.00;2.00;;;;;24.35;43.84;101134.70;110194;1249;21469;-38
2023/09/17 00:05:49;;;;;;;;;1.00;1.00;;;;;24.36;43.68;101135.58;110242;1247;19492;-38
2023/09/17 00:08:15;;;;;;;;;4.00;2.00;;;;;24.34;43.84;101137.61;110209;1257;18370;-40
2023/09/17 00:10:43;;;;;;;;;2.00;2.00;;;;;24.33;43.95;101137.34;110240;1260;20536;-37
2023/09/17 00:13:09;;;;;;;;;1.67;1.67;;;;;24.34;43.77;101135.80;110214;1263;22155;-37
2023/09/17 00:15:35;;;;;;;;;2.00;2.00;;;;;24.33;43.63;101136.30;110217;1263;19397;-38
2023/09/17 00:18:01;;;;;;;;;2.00;2.00;;;;;24.34;43.74;101134.11;110232;1263;22785;-38
2023/09/17 00:20:27;;;;;;;;;1.00;1.00;;;;;24.35;43.84;101130.81;110214;1247;22919;-38
2023/09/17 00:22:53;;;;;;;;;2.00;2.00;;;;;24.34;43.92;101127.60;110236;1247;22878;-37
2023/09/17 00:25:19;;;;;;;;;2.00;2.00;;;;;24.35;43.73;101126.59;110219;1263;22155;-37
2023/09/17 00:27:45;;;;;;;;;1.00;1.00;;;;;24.36;43.70;101125.88;110193;1251;22507;-38
2023/09/17 00:30:11;;;;;;;;;2.00;2.00;;;;;24.35;43.62;101123.98;110228;1251;19376;-38
2023/09/17 00:32:37;;;;;;;;;3.00;3.00;;;;;24.37;43.90;101127.78;110245;1263;18370;-38
2023/09/17 00:35:03;;;;;;;;;2.00;2.00;;;;;24.33;43.95;101127.32;110314;1257;20500;-38
2023/09/17 00:37:29;;;;;;;;;2.00;2.00;;;;;24.31;43.90;101121.81;110278;1263;18256;-39
2023/09/17 00:39:55;;;;;;;;;2.00;2.00;;;;;24.32;43.92;101122.08;110200;1263;20686;-37
2023/09/17 00:42:21;;;;;;;;;2.00;2.00;;;;;24.27;44.09;101121.50;110200;1263;19353;-40
2023/09/17 00:44:47;;;;;;;;;2.00;2.00;;;;;24.30;44.20;101119.30;110240;1251;19512;-37
2023/09/17 00:47:13;;;;;;;;;4.00;2.00;;;;;24.32;43.89;101119.83;110220;1263;18712;-37
2023/09/17 00:49:39;;;;;;;;;1.00;1.00;;;;;24.33;44.08;101113.75;110237;1263;19114;-38
2023/09/17 00:52:05;;;;;;;;;4.00;3.00;;;;;24.32;43.86;101116.59;110253;1248;22887;-37
2023/09/17 00:54:31;;;;;;;;;1.00;1.00;;;;;24.31;43.98;101110.42;110240;1259;19668;-37
2023/09/17 00:56:57;;;;;;;;;2.00;2.00;;;;;24.32;43.86;101110.95;110219;1251;23003;-39
2023/09/17 00:59:23;;;;;;;;;2.00;2.00;;;;;24.34;43.89;101109.41;110214;1256;18493;-38
2023/09/17 01:01:50;;;;;;;;;2.00;2.00;;;;;24.33;43.87;101109.74;110212;1263;19997;-40
2023/09/17 01:04:16;;;;;;;;;2.00;2.00;;;;;24.36;43.83;101108.02;110219;1263;19511;-39
2023/09/17 01:06:42;;;;;;;;;2.00;2.00;;;;;24.34;43.84;101104.09;110237;1257;19714;-38
2023/09/17 01:09:08;;;;;;;;;1.00;1.00;;;;;24.32;43.80;101106.64;110189;1257;21679;-38
2023/09/17 01:11:34;;;;;;;;;2.00;2.00;;;;;24.33;44.04;101104.54;110240;1257;20681;-38
2023/09/17 01:14:10;;;;;;;;;2.00;2.00;;;;;24.33;44.01;101105.86;110217;1263;18221;-38
2023/09/17 01:16:36;;;;;;;;;2.00;2.00;;;;;24.33;43.99;101107.29;110209;1248;22196;-37
2023/09/17 01:19:03;;;;;;;;;2.00;2.00;;;;;24.33;43.88;101106.89;110217;1248;20521;-37
2023/09/17 01:21:29;;;;;;;;;2.00;2.00;;;;;24.32;43.84;101107.40;110171;1250;19651;-38
2023/09/17 01:23:55;;;;;;;;;2.00;2.00;;;;;24.31;44.16;101102.64;110199;1248;20321;-38
2023/09/17 01:26:21;;;;;;;;;2.00;2.00;;;;;24.32;44.09;101096.99;110245;1251;20367;-38
2023/09/17 01:28:47;;;;;;;;;2.00;2.00;;;;;24.34;44.10;101095.83;110249;1248;22782;-38
2023/09/17 01:31:15;;;;;;;;;2.00;2.00;;;;;24.33;43.87;101091.13;110229;1247;20192;-39
2023/09/17 01:33:41;;;;;;;;;1.00;1.00;;;;;24.31;44.03;101090.11;110142;1247;22315;-37
2023/09/17 01:36:07;;;;;;;;;2.00;2.00;;;;;24.30;44.03;101088.85;110288;1248;23048;-40
2023/09/17 01:38:33;;;;;;;;;2.00;2.00;;;;;24.33;43.92;101089.60;110177;1263;18696;-38
2023/09/17 01:40:59;;;;;;;;;3.00;2.00;;;;;24.32;44.01;101091.73;110229;1251;22341;-39
2023/09/17 01:43:25;;;;;;;;;2.00;2.00;;;;;24.30;44.03;101087.70;110218;1248;22491;-37
2023/09/17 01:45:52;;;;;;;;;2.00;2.00;;;;;24.30;44.24;101089.02;110223;1248;21312;-37
2023/09/17 01:48:18;;;;;;;;;2.00;2.00;;;;;24.30;44.22;101088.52;110212;1263;21038;-37
2023/09/17 01:50:44;;;;;;;;;2.00;2.00;;;;;24.30;44.17;101087.05;110213;1264;18969;-37
2023/09/17 01:53:11;;;;;;;;;3.00;3.00;;;;;24.31;44.10;101090.11;110222;1264;23063;-37
2023/09/17 01:55:37;;;;;;;;;2.00;2.00;;;;;24.32;44.12;101094.59;110213;1263;19305;-37
2023/09/17 01:58:03;;;;;;;;;1.00;1.00;;;;;24.27;44.22;101091.94;110244;1263;19325;-37
2023/09/17 02:00:29;;;;;;;;;1.50;1.50;;;;;24.31;44.17;101094.21;110299;1248;20120;-37
2023/09/17 02:02:55;;;;;;;;;2.00;2.00;;;;;24.31;44.08;101087.86;110304;1264;19161;-37
2023/09/17 02:05:24;;;;;;;;;;;;;;;24.31;44.16;101086.88;110218;1263;18419;-38
2023/09/17 02:07:50;;;;;;;;;2.00;2.00;;;;;24.29;44.29;101081.97;110220;1264;19672;-38
2023/09/17 02:10:16;;;;;;;;;2.00;2.00;;;;;24.29;44.15;101079.05;110236;1251;20552;-38
2023/09/17 02:12:42;;;;;;;;;2.00;2.00;;;;;24.28;44.11;101084.49;110207;1256;23802;-38
2023/09/17 02:15:09;;;;;;;;;1.00;1.00;;;;;24.29;44.11;101084.32;110209;1251;22226;-38
2023/09/17 02:17:35;;;;;;;;;2.00;2.00;;;;;24.31;44.07;101083.98;110211;1247;22011;-38
2023/09/17 02:20:02;;;;;;;;;3.00;3.00;;;;;24.30;44.30;101082.40;110207;1250;22971;-38
2023/09/17 02:22:28;;;;;;;;;2.00;2.00;;;;;24.32;44.42;101079.10;110209;1248;20016;-38
2023/09/17 02:24:54;;;;;;;;;2.00;2.00;;;;;24.28;44.29;101080.81;110231;1249;19139;-37
2023/09/17 02:27:20;;;;;;;;;2.00;2.00;;;;;24.29;44.31;101078.67;110234;1263;18204;-39
2023/09/17 02:29:46;;;;;;;;;2.00;2.00;;;;;24.31;44.27;101074.02;110244;1251;22326;-38
2023/09/17 02:32:12;;;;;;;;;1.00;1.00;;;;;24.30;44.07;101075.55;110215;1247;22975;-37
2023/09/17 02:34:38;;;;;;;;;2.67;2.00;;;;;24.31;44.19;101070.23;110230;1248;22888;-38
2023/09/17 02:37:04;;;;;;;;;2.00;2.00;;;;;24.33;44.18;101074.88;110242;1263;18565;-39
2023/09/17 02:39:30;;;;;;;;;2.00;2.00;;;;;24.31;44.18;101073.13;110240;1250;20345;-39
2023/09/17 02:41:56;;;;;;;;;2.00;2.00;;;;;24.31;44.31;101074.77;110209;1257;19881;-39
2023/09/17 02:44:22;;;;;;;;;2.00;2.00;;;;;24.33;44.19;101075.74;110266;1257;19780;-37
2023/09/17 02:46:48;;;;;;;;;2.00;2.00;;;;;24.29;44.17;101076.60;110221;1260;20823;-37
2023/09/17 02:49:14;;;;;;;;;2.00;2.00;;;;;24.29;44.30;101073.64;110271;1251;19492;-37
2023/09/17 02:51:40;;;;;;;;;2.00;2.00;;;;;24.30;44.35;101073.58;110260;1264;21826;-39
2023/09/17 02:54:06;;;;;;;;;2.00;2.00;;;;;24.28;44.27;101071.19;110272;1248;21611;-38
2023/09/17 02:56:32;;;;;;;;;2.00;2.00;;;;;24.28;44.48;101071.02;110166;1250;20571;-38
2023/09/17 02:58:58;;;;;;;;;2.00;2.00;;;;;24.28;44.15;101069.44;110162;1247;18418;-37
2023/09/17 03:01:24;;;;;;;;;2.00;2.00;;;;;24.28;44.28;101073.92;110237;1247;24109;-39
2023/09/17 03:03:50;;;;;;;;;4.00;4.00;;;;;24.29;44.41;101071.45;110314;1263;19589;-37
2023/09/17 03:06:16;;;;;;;;;2.00;2.00;;;;;24.30;44.19;101071.12;110295;1263;22878;-37
2023/09/17 03:08:43;;;;;;;;;4.00;2.00;;;;;24.29;44.17;101069.48;110223;1251;21955;-39
2023/09/17 03:11:13;;;;;;;;;3.00;2.00;;;;;24.28;44.19;101073.60;110225;1263;18614;-38
2023/09/17 03:13:40;;;;;;;;;2.00;2.00;;;;;24.29;44.41;101075.17;110219;1263;20706;-38
2023/09/17 03:16:06;;;;;;;;;2.00;2.00;;;;;24.32;44.32;101073.89;110199;1263;19336;-37
2023/09/17 03:18:32;;;;;;;;;2.00;2.00;;;;;24.30;44.20;101070.17;110230;1248;22896;-39
2023/09/17 03:20:58;;;;;;;;;2.00;2.00;;;;;24.28;44.17;101067.35;110190;1247;22437;-37
2023/09/17 03:23:24;;;;;;;;;2.00;2.00;;;;;24.26;44.33;101066.04;110177;1263;22712;-37
2023/09/17 03:25:50;;;;;;;;;2.00;2.00;;;;;24.28;44.33;101065.10;110294;1263;22437;-37
2023/09/17 03:28:16;;;;;;;;;1.00;1.00;;;;;24.29;44.40;101058.10;110281;1263;22107;-38
2023/09/17 03:30:43;;;;;;;;;2.00;2.00;;;;;24.28;44.36;101056.67;110228;1263;20491;-38
2023/09/17 03:33:09;;;;;;;;;2.00;2.00;;;;;24.27;44.54;101050.00;110233;1250;19625;-37
2023/09/17 03:35:35;;;;;;;;;2.00;2.00;;;;;24.28;44.36;101049.17;110203;1248;21468;-38
2023/09/17 03:38:01;;;;;;;;;2.00;2.00;;;;;24.29;44.23;101047.41;110237;1263;20466;-38
2023/09/17 03:40:27;;;;;;;;;4.00;2.00;;;;;24.30;44.21;101043.85;110224;1251;20257;-38
2023/09/17 03:42:53;;;;;;;;;2.00;2.00;;;;;24.27;44.24;101044.46;110240;1250;19894;-38
2023/09/17 03:45:19;;;;;;;;;2.00;2.00;;;;;24.25;44.23;101046.70;110227;1251;20514;-38
2023/09/17 03:47:47;;;;;;;;;3.00;2.00;;;;;24.25;44.51;101046.33;110229;1252;19425;-38
2023/09/17 03:50:13;;;;;;;;;2.00;2.00;;;;;24.26;44.28;101044.03;110244;1248;21131;-38
2023/09/17 03:52:39;;;;;;;;;4.00;2.00;;;;;24.30;44.24;101044.78;110231;1263;21575;-38
2023/09/17 03:55:05;;;;;;;;;1.50;1.50;;;;;24.28;44.30;101042.11;110231;1249;20792;-38
2023/09/17 03:57:31;;;;;;;;;1.33;1.33;;;;;24.31;44.10;101043.67;110209;1250;22875;-38
2023/09/17 03:59:57;;;;;;;;;2.00;2.00;;;;;24.31;44.22;101043.45;110183;1248;21928;-38
2023/09/17 04:02:23;;;;;;;;;2.00;2.00;;;;;24.33;44.43;101044.64;110212;1257;19446;-38
2023/09/17 04:04:49;;;;;;;;;2.00;2.00;;;;;24.35;44.46;101049.71;110222;1247;20234;-37
2023/09/17 04:07:15;;;;;;;;;4.50;4.50;;;;;24.35;44.18;101048.23;110265;1264;22270;-38
2023/09/17 04:09:42;;;;;;;;;3.33;2.00;;;;;24.35;44.17;101049.89;110288;1263;18446;-39
2023/09/17 04:12:08;;;;;;;;;1.50;1.50;;;;;24.34;44.31;101048.79;110302;1248;20085;-37
2023/09/17 04:14:34;;;;;;;;;4.00;4.00;;;;;24.38;44.16;101053.64;110298;1251;20485;-38
2023/09/17 04:17:00;;;;;;;;;1.00;1.00;;;;;24.39;44.15;101050.45;110279;1251;19434;-38
2023/09/17 04:19:26;;;;;;;;;2.00;2.00;;;;;24.41;44.05;101051.36;110250;1251;19686;-37
2023/09/17 04:21:52;;;;;;;;;4.00;2.00;;;;;24.43;43.97;101054.58;110231;1251;24028;-39
2023/09/17 04:24:19;;;;;;;;;2.00;2.00;;;;;24.43;44.07;101056.71;110226;1251;23113;-40
2023/09/17 04:26:46;;;;;;;;;2.00;2.00;;;;;24.44;43.98;101054.95;110237;1250;21516;-40
2023/09/17 04:29:12;;;;;;;;;2.00;2.00;;;;;24.42;44.27;101057.76;110202;1251;22187;-37
2023/09/17 04:31:38;;;;;;;;;2.00;2.00;;;;;24.45;44.18;101055.27;110242;1248;19647;-38
2023/09/17 04:34:04;;;;;;;;;2.00;2.00;;;;;24.42;43.91;101051.67;110242;1263;18436;-38
2023/09/17 04:36:30;;;;;;;;;4.00;2.00;;;;;24.37;44.09;101051.89;110213;1251;22511;-38
2023/09/17 04:38:56;;;;;;;;;2.00;2.00;;;;;24.35;44.16;101050.10;110238;1264;18195;-38
2023/09/17 04:41:22;;;;;;;;;3.00;2.00;;;;;24.35;44.29;101049.89;110220;1251;22943;-38
2023/09/17 04:43:48;;;;;;;;;3.00;2.00;;;;;24.35;44.11;101050.38;110241;1251;22956;-37
2023/09/17 04:46:14;;;;;;;;;4.00;2.00;;;;;24.33;44.18;101051.11;110237;1263;18872;-38
2023/09/17 04:48:40;;;;;;;;;2.00;2.00;;;;;24.34;44.12;101051.80;110228;1250;22363;-37
2023/09/17 04:51:06;;;;;;;;;1.50;1.50;;;;;24.33;44.38;101054.77;110217;1251;20830;-40
2023/09/17 04:53:32;;;;;;;;;4.00;2.00;;;;;24.32;44.27;101054.13;110220;1248;21807;-38
2023/09/17 04:55:58;;;;;;;;;2.00;2.00;;;;;24.34;44.33;101059.52;110262;1251;20084;-38
2023/09/17 04:58:24;;;;;;;;;2.00;2.00;;;;;24.33;44.43;101056.36;110226;1263;20771;-38
2023/09/17 05:00:51;;;;;;;;;4.00;4.00;;;;;24.34;44.23;101058.77;110236;1251;20995;-38
2023/09/17 05:03:17;;;;;;;;;4.00;2.00;;;;;24.33;44.32;101058.48;110219;1263;18598;-38
2023/09/17 05:05:42;;;;;;;;;2.00;2.00;;;;;24.33;44.43;101058.00;110218;1250;20478;-38
2023/09/17 05:08:09;;;;;;;;;4.00;4.00;;;;;24.34;44.28;101062.15;110242;1248;18356;-38
2023/09/17 05:10:34;;;;;;;;;4.00;4.00;;;;;24.36;44.20;101066.96;110179;1263;18384;-38
2023/09/17 05:13:00;;;;;;;;;2.00;2.00;;;;;24.38;44.08;101065.35;110203;1248;20688;-38
2023/09/17 05:15:26;;;;;;;;;4.00;3.00;;;;;24.40;44.16;101067.85;110213;1263;18203;-38
2023/09/17 05:17:52;;;;;;;;;4.00;3.00;;;;;24.40;44.18;101069.11;110215;1251;23468;-38
2023/09/17 05:20:21;;;;;;;;;2.00;2.00;;;;;24.42;44.18;101070.24;110209;1263;19120;-38
2023/09/17 05:22:47;;;;;;;;;4.50;2.00;;;;;24.40;44.14;101078.52;110241;1263;22577;-38
2023/09/17 05:25:13;;;;;;;;;4.00;4.00;;;;;24.42;44.01;101079.18;110196;1248;22911;-38
2023/09/17 05:27:39;;;;;;;;;6.00;5.00;;;;;24.43;44.25;101078.73;110201;1256;22160;-38
2023/09/17 05:30:05;;;;;;;;;6.00;4.00;;;;;24.56;43.86;101084.91;110215;1251;19420;-38
2023/09/17 05:32:31;;;;;;;;;6.00;4.00;;;;;24.52;44.15;101089.83;110200;1263;20095;-39
2023/09/17 05:34:57;;;;;;;;;;;;;;;24.56;44.09;101092.64;110166;1257;23946;-38
2023/09/17 05:37:23;;;;;;;;;5.00;5.00;;;;;24.57;44.22;101094.82;110316;1247;22823;-38
2023/09/17 05:39:50;;;;;;;;;5.00;5.00;;;;;24.57;44.15;101100.40;110236;1264;22321;-38
2023/09/17 05:42:16;;;;;;;;;5.00;5.00;;;;;24.59;44.12;101100.01;110247;1263;19463;-38
2023/09/17 05:44:42;;;;;;;;;5.50;5.50;;;;;24.62;44.29;101098.39;110208;1251;20755;-38
2023/09/17 05:47:08;;;;;;;;;4.00;4.00;;;;;24.66;44.23;101098.45;110111;1248;21072;-38
2023/09/17 05:49:33;;;;;;;;;9.00;6.00;;;;;24.71;44.71;101100.83;110244;1251;21622;-38
2023/09/17 05:51:59;;;;;;;;;5.00;5.00;;;;;24.71;44.71;101098.09;110249;1263;18292;-38
2023/09/17 05:54:25;;;;;;;;;8.00;8.00;;;;;24.73;44.68;101101.25;110239;1248;19764;-37
2023/09/17 05:56:52;;;;;;;;;9.50;8.00;;;;;24.75;44.71;101098.00;110219;1264;21570;-37
2023/09/17 05:59:17;;;;;;;;;16.50;16.00;;;;;24.72;44.59;101099.99;110251;1257;18939;-37
2023/09/17 06:01:43;;;;;;;;;17.00;16.00;;;;;24.51;44.74;101097.77;110221;1250;19860;-38
2023/09/17 06:04:09;;;;;;;;;18.00;17.00;;;;;24.40;44.97;101100.21;110206;1264;19089;-40
2023/09/17 06:06:35;;;;;;;;;17.00;17.00;;;;;24.45;45.37;101100.35;110253;1250;19741;-39
2023/09/17 06:09:01;;;;;;;;;18.00;17.00;;;;;24.41;45.53;101094.89;110008;1250;269654;-39
2023/09/17 06:11:27;;;;;;;;;25.00;18.00;;;;;24.42;45.83;101096.09;110232;1264;21924;-37
2023/09/17 06:13:53;;;;;;;;;20.00;17.00;;;;;24.44;45.66;101096.58;110237;1251;19968;-38
2023/09/17 06:16:19;;;;;;;;;16.00;14.00;;;;;24.47;45.77;101095.28;110209;1247;19869;-38
2023/09/17 06:18:45;;;;;;;;;17.00;16.00;;;;;24.42;45.90;101099.22;110267;1263;18976;-39
2023/09/17 06:21:11;;;;;;;;;17.00;16.00;;;;;24.42;45.94;101096.59;110247;1250;20075;-38
2023/09/17 06:23:37;;;;;;;;;13.00;13.00;;;;;24.35;46.10;101092.04;110246;1247;19869;-39
2023/09/17 06:26:03;;;;;;;;;18.50;16.50;;;;;24.32;46.22;101089.88;110199;1250;20629;-39
2023/09/17 06:28:29;;;;;;;;;18.50;16.50;;;;;24.37;46.07;101090.05;110209;1250;19791;-39
2023/09/17 06:30:55;;;;;;;;;20.00;18.50;;;;;24.23;45.85;101091.30;110254;1258;19774;-37
2023/09/17 06:33:20;;;;;;;;;27.00;21.00;;;;;24.06;46.15;101092.45;110283;1259;20724;-38
2023/09/17 06:35:46;;;;;;;;;24.00;21.00;;;;;24.09;46.17;101095.66;110187;1264;18515;-38
2023/09/17 06:38:12;;;;;;;;;21.00;20.00;;;;;24.08;46.25;101096.27;110220;1256;21060;-37
2023/09/17 06:40:38;;;;;;;;;18.00;17.00;;;;;24.04;46.43;101093.39;110168;1250;20532;-37
2023/09/17 06:43:04;;;;;;;;;20.00;19.00;;;;;24.03;46.61;101098.65;110212;1257;22751;-37
2023/09/17 06:45:30;;;;;;;;;24.00;23.00;;;;;23.92;46.79;101101.45;110282;1250;19784;-36
2023/09/17 06:47:56;;;;;;;;;17.00;17.00;;;;;23.65;47.21;101104.50;110260;1264;19612;-39
2023/09/17 06:50:22;;;;;;;;;21.00;20.00;;;;;23.81;46.82;101103.98;110170;1250;21304;-37
2023/09/17 06:52:48;;;;;;;;;119.00;89.00;;;;;23.87;46.99;101105.32;110140;1250;21148;-37
2023/09/17 06:55:14;;;;;;;;;271.00;189.33;;;;;23.88;47.26;101104.81;110248;1258;20722;-37
2023/09/17 06:57:40;;;;;;;;;180.00;130.00;;;;;23.98;47.02;101101.47;110271;1260;20115;-37
2023/09/17 07:00:06;;;;;;;;;122.50;93.00;;;;;23.93;47.08;101104.67;110147;1250;20030;-37
2023/09/17 07:02:32;;;;;;;;;90.00;65.00;;;;;24.04;47.39;101108.55;110330;1250;20971;-36
2023/09/17 07:05:00;;;;;;;;;49.00;36.00;;;;;24.12;46.84;101109.86;110262;1257;20107;-36
2023/09/17 07:07:26;;;;;;;;;37.67;30.33;;;;;23.96;47.37;101115.06;110220;1247;22796;-37
2023/09/17 07:09:52;;;;;;;;;30.00;22.00;;;;;23.95;47.47;101113.74;110176;1264;21965;-37
2023/09/17 07:12:18;;;;;;;;;26.00;21.00;;;;;23.75;47.84;101114.95;110211;1264;18337;-38
2023/09/17 07:14:44;;;;;;;;;23.00;21.00;;;;;23.76;48.04;101111.89;110231;1250;19951;-37
2023/09/17 07:17:10;;;;;;;;;26.00;24.00;;;;;23.64;48.37;101114.40;110234;1264;22770;-36
2023/09/17 07:19:36;;;;;;;;;26.50;22.50;;;;;23.54;48.63;101110.55;110224;1264;22249;-36
2023/09/17 07:22:02;;;;;;;;;29.00;25.00;;;;;23.75;48.28;101106.75;110225;1250;21712;-39
2023/09/17 07:24:28;;;;;;;;;23.50;22.00;;;;;23.75;48.07;101105.05;110206;1264;19113;-39
2023/09/17 07:26:54;;;;;;;;;27.00;24.00;;;;;23.76;48.35;101106.25;110229;1264;19707;-36
2023/09/17 07:29:20;;;;;;;;;18.00;16.00;;;;;23.67;48.55;101110.13;110218;1264;18510;-38
2023/09/17 07:31:47;;;;;;;;;20.00;19.00;;;;;23.83;48.28;101106.48;110256;1264;22220;-37
2023/09/17 07:34:13;;;;;;;;;21.00;19.67;;;;;23.99;48.21;101105.63;110208;1250;20197;-39
2023/09/17 07:36:39;;;;;;;;;20.00;19.00;;;;;24.11;47.73;101101.94;110175;1264;18829;-39
2023/09/17 07:39:05;;;;;;;;;24.00;20.00;;;;;24.24;47.41;101106.63;110221;1247;20698;-39
2023/09/17 07:41:31;;;;;;;;;17.00;16.00;;;;;24.34;47.13;101107.77;110210;1250;20451;-39
2023/09/17 07:43:58;;;;;;;;;23.00;17.00;;;;;24.36;47.15;101111.54;110218;1247;21376;-39
2023/09/17 07:46:24;;;;;;;;;17.00;14.00;;;;;24.36;47.08;101111.15;110230;1247;22934;-38
2023/09/17 07:48:50;;;;;;;;;23.00;20.00;;;;;24.33;47.24;101115.59;110251;1250;22779;-39
2023/09/17 07:51:16;;;;;;;;;24.00;21.00;;;;;24.38;47.43;101118.91;110251;1263;18480;-39
2023/09/17 07:53:42;;;;;;;;;20.50;19.50;;;;;24.13;47.94;101123.66;110255;1250;20592;-40
2023/09/17 07:56:08;;;;;;;;;20.50;20.00;;;;;24.10;48.15;101117.65;110233;1250;19738;-39
2023/09/17 07:58:34;;;;;;;;;23.50;20.00;;;;;24.24;48.20;101112.97;110260;1257;19907;-39
2023/09/17 08:01:00;;;;;;;;;25.00;23.00;;;;;24.35;47.85;101115.48;110220;1250;20621;-38
2023/09/17 08:03:26;;;;;;;;;25.50;20.50;;;;;24.41;47.97;101113.23;110226;1248;19784;-38
2023/09/17 08:05:52;;;;;;;;;23.00;20.00;;;;;24.37;48.39;101116.02;110246;1264;18655;-36
2023/09/17 08:08:18;;;;;;;;;27.33;26.00;;;;;24.43;48.44;101113.12;110251;1247;22373;-38
2023/09/17 08:10:44;;;;;;;;;24.00;21.00;;;;;24.46;48.40;101111.39;110274;1247;23310;-39
2023/09/17 08:13:10;;;;;;;;;24.00;21.00;;;;;24.47;48.19;101116.21;110278;1264;20078;-38
2023/09/17 08:15:37;;;;;;;;;24.00;21.00;;;;;24.40;48.55;101119.16;110238;1250;20640;-38
2023/09/17 08:18:03;;;;;;;;;21.50;18.00;;;;;24.50;48.51;101117.33;110224;1263;18634;-38
2023/09/17 08:20:29;;;;;;;;;20.00;16.50;;;;;24.67;47.98;101117.46;110249;1250;19905;-40
2023/09/17 08:22:55;;;;;;;;;19.00;16.00;;;;;24.71;48.04;101113.16;110219;1248;19120;-38
2023/09/17 08:25:21;;;;;;;;;13.50;13.00;;;;;24.76;47.77;101111.79;110138;1247;20785;-38
2023/09/17 08:27:47;;;;;;;;;17.00;16.00;;;;;24.82;47.57;101111.13;110218;1248;22580;-38
2023/09/17 08:30:13;;;;;;;;;14.00;13.00;;;;;24.83;47.71;101116.92;110281;1248;19419;-37
2023/09/17 08:32:39;;;;;;;;;18.00;15.00;;;;;24.84;47.73;101114.56;110207;1247;20361;-39
2023/09/17 08:35:06;;;;;;;;;13.00;13.00;;;;;24.87;47.43;101116.08;110192;1263;18582;-38
2023/09/17 08:37:33;;;;;;;;;14.00;13.50;;;;;24.86;47.51;101112.89;110163;1263;22737;-39
2023/09/17 08:39:59;;;;;;;;;11.00;11.00;;;;;24.89;47.55;101111.23;110212;1248;21223;-39
2023/09/17 08:42:27;;;;;;;;;10.00;9.00;;;;;24.90;47.24;101112.75;110051;1250;22667;-39
2023/09/17 08:44:53;;;;;;;;;10.00;9.00;;;;;24.94;47.13;101114.47;110240;1249;20973;-39
2023/09/17 08:47:19;;;;;;;;;12.00;11.00;;;;;24.96;47.04;101115.99;110266;1250;23055;-39
2023/09/17 08:49:45;;;;;;;;;10.00;9.00;;;;;24.97;46.96;101107.83;110182;1250;20156;-39
2023/09/17 08:52:11;;;;;;;;;10.00;10.00;;;;;24.99;47.04;101104.91;110187;1256;24168;-39
2023/09/17 08:54:37;;;;;;;;;11.50;10.50;;;;;24.99;47.05;101102.77;110173;1263;18371;-39
2023/09/17 08:57:03;;;;;;;;;8.00;8.00;;;;;24.98;47.15;101101.25;110166;1250;22770;-39
2023/09/17 08:59:29;;;;;;;;;10.00;9.00;;;;;24.99;46.91;101100.98;110227;1263;19711;-39
2023/09/17 09:01:56;;;;;;;;;13.00;10.00;;;;;25.01;47.10;101100.17;110146;1247;19616;-39
2023/09/17 09:04:22;;;;;;;;;10.50;10.50;;;;;25.00;46.97;101100.95;110259;1256;20035;-38
2023/09/17 09:06:48;;;;;;;;;10.00;9.00;;;;;24.99;46.90;101101.94;110260;1247;19176;-38
2023/09/17 09:09:13;;;;;;;;;10.00;10.00;;;;;25.01;46.77;101101.66;110219;1247;19854;-38
2023/09/17 09:11:39;;;;;;;;;8.00;8.00;;;;;25.01;46.90;101109.49;110193;1264;19988;-38
2023/09/17 09:14:06;;;;;;;;;12.00;11.50;;;;;25.00;46.84;101107.48;110216;1263;19218;-38
2023/09/17 09:16:32;;;;;;;;;11.50;11.50;;;;;24.98;46.78;101109.08;110209;1247;22830;-38
2023/09/17 09:18:58;;;;;;;;;9.00;9.00;;;;;24.98;47.12;101106.77;110151;1251;20169;-38
2023/09/17 09:21:25;;;;;;;;;17.00;14.00;;;;;24.99;47.05;101109.95;110182;1250;20835;-38
2023/09/17 09:23:51;;;;;;;;;9.00;9.00;;;;;24.98;46.75;101105.09;110221;1250;19606;-39
2023/09/17 09:26:17;;;;;;;;;9.50;9.00;;;;;24.97;47.06;101106.78;110246;1263;18408;-39
2023/09/17 09:28:42;;;;;;;;;9.00;8.00;;;;;24.98;46.81;101110.18;110380;1247;21715;-38
2023/09/17 09:31:09;;;;;;;;;7.00;7.00;;;;;24.98;46.76;101104.75;110407;1262;20026;-39
2023/09/17 09:33:35;;;;;;;;;9.00;9.00;;;;;24.97;46.80;101108.54;110419;1262;20100;-38
2023/09/17 09:36:01;;;;;;;;;6.00;6.00;;;;;24.96;46.93;101106.89;110373;1262;21887;-38
2023/09/17 09:38:27;;;;;;;;;6.00;6.00;;;;;24.96;46.96;101104.15;110365;1263;20764;-38
2023/09/17 09:40:53;;;;;;;;;10.00;7.00;;;;;24.98;47.05;101104.70;110369;1247;20189;-38
2023/09/17 09:43:19;;;;;;;;;6.00;6.00;;;;;24.98;46.84;101099.12;110397;1247;20709;-38
2023/09/17 09:45:45;;;;;;;;;7.50;7.00;;;;;24.99;47.10;101098.23;110392;1247;19744;-38
2023/09/17 09:48:11;;;;;;;;;8.50;8.50;;;;;24.99;46.82;101098.02;110403;1262;18374;-39
2023/09/17 09:50:37;;;;;;;;;6.00;6.00;;;;;24.99;46.83;101098.89;110392;1248;20467;-39
2023/09/17 09:53:03;;;;;;;;;6.00;6.00;;;;;24.97;47.05;101093.80;110364;1262;18313;-39
2023/09/17 09:55:29;;;;;;;;;8.00;8.00;;;;;24.98;46.82;101094.98;110402;1262;19728;-39
2023/09/17 09:57:55;;;;;;;;;6.00;6.00;;;;;24.98;46.89;101092.59;110418;1248;20666;-39
2023/09/17 10:00:26;;;;;;;;;7.00;7.00;;;;;24.99;46.83;101096.26;110387;1248;19372;-40
2023/09/17 10:02:52;;;;;;;;;7.00;6.00;;;;;24.99;46.70;101095.31;110376;1248;19987;-38
2023/09/17 10:05:18;;;;;;;;;7.00;7.00;;;;;24.98;46.87;101095.33;110398;1247;19409;-39
2023/09/17 10:07:44;;;;;;;;;9.00;7.00;;;;;25.00;46.89;101094.16;110406;1257;20575;-39
2023/09/17 10:10:10;;;;;;;;;10.00;10.00;;;;;24.98;46.99;101089.52;110384;1263;18500;-39
2023/09/17 10:12:36;;;;;;;;;9.50;7.50;;;;;24.97;47.03;101089.13;110261;1258;20360;-38
2023/09/17 10:15:02;;;;;;;;;6.00;6.00;;;;;24.99;46.84;101085.88;110219;1253;19744;-39
2023/09/17 10:17:28;;;;;;;;;7.00;6.00;;;;;24.99;46.74;101084.84;110225;1264;18406;-39
2023/09/17 10:19:54;;;;;;;;;6.00;6.00;;;;;24.99;46.93;101085.67;110208;1250;20564;-38
2023/09/17 10:22:20;;;;;;;;;5.00;5.00;;;;;24.99;46.91;101085.40;110190;1264;22042;-39
2023/09/17 10:24:46;;;;;;;;;9.00;9.00;;;;;24.98;46.86;101084.63;110220;1247;19847;-38
2023/09/17 10:27:12;;;;;;;;;6.00;6.00;;;;;24.99;46.95;101082.54;110291;1257;22080;-38
2023/09/17 10:29:38;;;;;;;;;10.00;9.50;;;;;25.00;46.74;101081.06;110358;1262;23281;-39
2023/09/17 10:32:04;;;;;;;;;6.50;6.50;;;;;24.99;46.82;101083.80;110367;1248;23080;-39
2023/09/17 10:34:31;;;;;;;;;6.00;6.00;;;;;25.00;46.94;101086.81;110390;1257;20828;-38
2023/09/17 10:36:57;;;;;;;;;5.00;5.00;;;;;24.97;46.97;101086.23;110318;1248;20824;-38
2023/09/17 10:39:23;;;;;;;;;5.00;5.00;;;;;24.97;46.88;101080.09;110402;1248;19807;-38
2023/09/17 10:41:49;;;;;;;;;10.00;10.00;;;;;24.97;46.89;101080.27;110415;1262;19114;-39
2023/09/17 10:44:15;;;;;;;;;5.50;5.00;;;;;24.98;46.96;101079.77;110384;1262;19585;-38
2023/09/17 10:46:43;;;;;;;;;6.00;6.00;;;;;24.95;47.13;101077.08;110391;1248;20063;-39
2023/09/17 10:49:09;;;;;;;;;3.00;3.00;;;;;24.98;46.82;101079.05;110380;1247;22737;-39
2023/09/17 10:51:35;;;;;;;;;5.00;5.00;;;;;24.96;46.87;101077.25;110392;1248;19891;-39
2023/09/17 10:54:01;;;;;;;;;5.00;5.00;;;;;24.95;46.96;101076.20;110388;1248;21214;-38
2023/09/17 10:56:27;;;;;;;;;8.50;8.50;;;;;24.96;47.14;101074.27;110429;1262;19162;-39
2023/09/17 10:58:53;;;;;;;;;5.00;5.00;;;;;24.95;47.14;101076.69;110397;1262;18524;-38
2023/09/17 11:01:19;;;;;;;;;8.50;8.50;;;;;24.95;46.93;101077.62;110395;1248;19795;-39
2023/09/17 11:03:45;;;;;;;;;5.00;5.00;;;;;24.91;47.08;101075.09;110382;1247;20933;-39
2023/09/17 11:06:16;;;;;;;;;5.00;5.00;;;;;24.92;47.26;101079.96;110243;1255;19216;-39